createdAt,value
2019-04-03T00:01:52.866Z,7.13
2019-04-03T00:04:24.828Z,7.11
2019-04-03T00:06:56.816Z,7.07
2019-04-03T00:09:28.754Z,7.05
2019-04-03T00:12:01.172Z,7.04
2019-04-03T00:14:33.182Z,7.01
2019-04-03T00:17:05.250Z,6.98
2019-04-03T00:19:37.303Z,6.98
2019-04-03T00:22:10.400Z,6.89
2019-04-03T00:24:42.452Z,6.87
2019-04-03T00:27:15.409Z,6.86
2019-04-03T00:29:47.597Z,6.82
2019-04-03T00:32:19.544Z,6.81
2019-04-03T00:34:53.371Z,6.78
2019-04-03T00:37:25.410Z,6.82
2019-04-03T00:39:57.520Z,6.77
2019-04-03T00:42:29.484Z,6.77
2019-04-03T00:45:01.560Z,6.74
2019-04-03T00:47:33.490Z,6.73
2019-04-03T00:50:06.287Z,6.71
2019-04-03T00:52:38.350Z,6.71
2019-04-03T00:55:10.888Z,6.68
2019-04-03T00:57:42.843Z,6.67
2019-04-03T01:00:17.581Z,6.64
2019-04-03T01:02:49.545Z,6.59
2019-04-03T01:05:21.713Z,6.55
2019-04-03T01:07:53.723Z,6.58
2019-04-03T01:10:25.702Z,6.53
2019-04-03T01:12:57.660Z,6.47
2019-04-03T01:15:31.181Z,6.42
2019-04-03T01:18:05.126Z,6.40
2019-04-03T01:20:37.224Z,6.34
2019-04-03T01:23:10.324Z,6.32
2019-04-03T01:25:42.600Z,6.27
2019-04-03T01:28:14.652Z,6.25
2019-04-03T01:30:46.831Z,6.21
2019-04-03T01:33:18.751Z,6.20
2019-04-03T01:35:51.062Z,6.17
2019-04-03T01:38:22.995Z,6.14
2019-04-03T01:40:54.955Z,6.11
2019-04-03T01:43:26.910Z,6.11
2019-04-03T01:45:58.915Z,6.09
2019-04-03T01:48:30.848Z,6.06
2019-04-03T01:51:02.851Z,6.05
2019-04-03T01:53:34.796Z,6.02
2019-04-03T01:56:06.832Z,5.98
2019-04-03T01:58:41.278Z,5.91
2019-04-03T02:01:13.245Z,5.88
2019-04-03T02:03:45.164Z,5.84
2019-04-03T02:06:17.166Z,5.77
2019-04-03T02:08:49.202Z,5.70
2019-04-03T02:11:21.123Z,5.60
2019-04-03T02:13:53.078Z,5.52
2019-04-03T02:16:24.992Z,5.45
2019-04-03T02:18:57.043Z,5.39
2019-04-03T02:21:29.134Z,5.33
2019-04-03T02:24:01.790Z,5.34
2019-04-03T02:26:33.871Z,5.32
2019-04-03T02:29:08.199Z,5.30
2019-04-03T02:31:39.709Z,5.28
2019-04-03T02:34:12.093Z,5.27
2019-04-03T02:36:45.420Z,5.23
2019-04-03T02:39:17.663Z,5.21
2019-04-03T02:41:49.992Z,5.16
2019-04-03T02:44:22.020Z,5.17
2019-04-03T02:46:54.306Z,5.17
2019-04-03T02:49:26.454Z,5.14
2019-04-03T02:51:58.736Z,5.11
2019-04-03T02:54:35.769Z,5.08
2019-04-03T02:57:07.081Z,5.07
2019-04-03T02:59:39.330Z,5.02
2019-04-03T03:02:12.515Z,5.00
2019-04-03T03:04:45.013Z,4.97
2019-04-03T03:07:17.181Z,4.92
2019-04-03T03:09:49.321Z,4.89
2019-04-03T03:12:21.578Z,4.86
2019-04-03T03:14:53.901Z,4.85
2019-04-03T03:17:26.345Z,4.78
2019-04-03T03:20:00.268Z,4.75
2019-04-03T03:22:32.331Z,4.73
2019-04-03T03:25:04.992Z,4.71
2019-04-03T03:27:40.756Z,4.67
2019-04-03T03:30:33.195Z,4.64
2019-04-03T03:32:46.980Z,4.63
2019-04-03T03:35:27.886Z,4.61
2019-04-03T03:37:53.087Z,4.62
2019-04-03T03:40:25.058Z,4.60
2019-04-03T03:42:57.359Z,4.57
2019-04-03T03:45:32.130Z,4.53
2019-04-03T03:48:08.206Z,4.49
2019-04-03T03:50:39.115Z,4.47
2019-04-03T03:53:12.708Z,4.44
2019-04-03T03:55:47.013Z,4.38
2019-04-03T03:58:20.178Z,4.36
2019-04-03T04:00:53.222Z,4.32
2019-04-03T04:03:25.981Z,4.29
2019-04-03T04:05:58.238Z,4.27
2019-04-03T04:08:31.709Z,4.26
2019-04-03T04:11:04.520Z,4.26
2019-04-03T04:13:39.174Z,4.24
2019-04-03T04:16:11.254Z,4.22
2019-04-03T04:18:43.303Z,4.18
2019-04-03T04:21:16.631Z,4.19
2019-04-03T04:23:48.897Z,4.22
2019-04-03T04:26:22.762Z,4.26
2019-04-03T04:28:55.249Z,4.31
2019-04-03T04:31:27.217Z,4.37
2019-04-03T04:33:59.692Z,4.45
2019-04-03T04:36:31.664Z,4.54
2019-04-03T04:39:05.444Z,4.67
2019-04-03T04:41:37.580Z,4.80
2019-04-03T04:44:10.288Z,4.99
2019-04-03T04:46:44.573Z,5.20
2019-04-03T04:49:16.313Z,5.36
2019-04-03T04:51:48.259Z,5.50
2019-04-03T04:54:20.281Z,5.75
2019-04-03T04:56:52.960Z,6.10
2019-04-03T04:59:25.332Z,6.41
2019-04-03T05:01:57.306Z,6.63
2019-04-03T05:04:29.331Z,6.93
2019-04-03T05:07:01.683Z,7.22
2019-04-03T05:09:34.800Z,7.61
2019-04-03T05:12:09.447Z,7.92
2019-04-03T05:14:41.215Z,8.17
2019-04-03T05:17:13.196Z,8.58
2019-04-03T05:19:45.178Z,9.02
2019-04-03T05:22:17.138Z,9.22
2019-04-03T05:24:49.109Z,9.41
2019-04-03T05:27:21.073Z,9.84
2019-04-03T05:29:53.035Z,10.35
2019-04-03T05:32:25.089Z,10.94
2019-04-03T05:34:57.238Z,11.61
2019-04-03T05:37:29.853Z,12.19
2019-04-03T05:40:01.862Z,12.49
2019-04-03T05:42:34.218Z,12.98
2019-04-03T05:45:06.995Z,13.57
2019-04-03T05:47:39.876Z,13.68
2019-04-03T05:50:12.034Z,13.95
2019-04-03T05:52:44.164Z,13.92
2019-04-03T05:55:16.709Z,12.84
2019-04-03T05:57:48.938Z,12.57
2019-04-03T06:00:21.539Z,13.21
2019-04-03T06:02:54.706Z,13.75
2019-04-03T06:05:29.022Z,14.02
2019-04-03T06:08:01.219Z,14.43
2019-04-03T06:10:36.591Z,15.37
2019-04-03T06:13:06.984Z,16.23
2019-04-03T06:15:40.599Z,17.95
2019-04-03T06:18:12.702Z,18.71
2019-04-03T06:20:45.914Z,19.11
2019-04-03T06:23:20.974Z,19.44
2019-04-03T06:25:51.724Z,19.81
2019-04-03T06:28:23.910Z,20.50
2019-04-03T06:30:56.726Z,21.18
2019-04-03T06:33:31.433Z,21.04
2019-04-03T06:36:03.176Z,22.03
2019-04-03T06:38:36.268Z,22.68
2019-04-03T06:41:09.097Z,23.13
2019-04-03T06:43:41.455Z,22.34
2019-04-03T06:46:15.832Z,22.14
2019-04-03T06:48:47.863Z,21.91
2019-04-03T06:51:20.149Z,22.16
2019-04-03T06:53:52.237Z,23.22
2019-04-03T06:56:25.747Z,24.00
2019-04-03T06:58:57.971Z,24.81
2019-04-03T07:01:30.618Z,25.95
2019-04-03T07:04:02.723Z,25.92
2019-04-03T07:06:34.730Z,25.76
2019-04-03T07:09:21.215Z,26.17
2019-04-03T07:11:43.528Z,27.57
2019-04-03T07:14:17.315Z,28.26
2019-04-03T07:16:49.292Z,29.73
2019-04-03T07:19:21.272Z,29.68
2019-04-03T07:21:55.180Z,30.19
2019-04-03T07:24:26.942Z,30.27
2019-04-03T07:26:58.950Z,30.74
2019-04-03T07:29:30.934Z,31.66
2019-04-03T07:32:03.110Z,33.62
2019-04-03T07:34:35.481Z,34.99
2019-04-03T07:37:07.684Z,35.51
2019-04-03T07:39:39.915Z,35.85
2019-04-03T07:42:11.927Z,34.86
2019-04-03T07:44:44.135Z,33.36
2019-04-03T07:47:16.201Z,31.88
2019-04-03T07:49:48.301Z,32.77
2019-04-03T07:52:20.535Z,33.97
2019-04-03T07:54:53.097Z,35.46
2019-04-03T07:57:26.878Z,37.17
2019-04-03T07:59:59.966Z,38.34
2019-04-03T08:02:33.706Z,33.70
2019-04-03T08:05:07.007Z,29.21
2019-04-03T08:07:38.999Z,27.70
2019-04-03T08:10:11.334Z,27.17
2019-04-03T08:12:43.334Z,27.18
2019-04-03T08:15:15.438Z,29.28
2019-04-03T08:17:47.831Z,33.02
2019-04-03T08:20:21.194Z,36.18
2019-04-03T08:22:53.178Z,38.45
2019-04-03T08:25:25.273Z,37.46
2019-04-03T08:27:57.274Z,38.31
2019-04-03T08:30:29.422Z,38.31
2019-04-03T08:33:15.232Z,37.58
2019-04-03T08:35:37.766Z,38.33
2019-04-03T08:38:12.413Z,36.76
2019-04-03T08:40:43.593Z,35.86
2019-04-03T08:43:17.393Z,36.27
2019-04-03T08:45:51.303Z,35.84
2019-04-03T08:48:23.486Z,37.57
2019-04-03T08:50:57.808Z,39.50
2019-04-03T08:53:29.368Z,41.30
2019-04-03T08:56:01.517Z,41.63
2019-04-03T08:58:33.729Z,40.31
2019-04-03T09:01:05.991Z,41.77
2019-04-03T09:03:37.976Z,43.09
2019-04-03T09:06:10.255Z,42.66
2019-04-03T09:08:42.217Z,40.97
2019-04-03T09:11:14.171Z,40.87
2019-04-03T09:13:46.162Z,40.18
2019-04-03T09:16:18.239Z,40.68
2019-04-03T09:18:50.252Z,40.82
2019-04-03T09:21:22.251Z,41.35
2019-04-03T09:23:57.883Z,41.38
2019-04-03T09:26:33.005Z,40.69
2019-04-03T09:29:04.485Z,40.88
2019-04-03T09:31:36.509Z,41.42
2019-04-03T09:34:08.473Z,41.09
2019-04-03T09:36:40.730Z,39.91
2019-04-03T09:39:14.543Z,38.89
2019-04-03T09:41:46.842Z,38.28
2019-04-03T09:44:18.796Z,36.13
2019-04-03T09:46:50.819Z,34.13
2019-04-03T09:49:22.880Z,34.21
2019-04-03T09:51:54.947Z,33.58
2019-04-03T09:54:28.613Z,33.55
2019-04-03T09:57:04.586Z,33.14
2019-04-03T09:59:37.413Z,33.20
2019-04-03T10:02:09.244Z,31.74
2019-04-03T10:04:41.462Z,30.42
2019-04-03T10:07:13.486Z,29.28
2019-04-03T10:09:45.522Z,29.28
2019-04-03T10:12:17.532Z,29.33
2019-04-03T10:14:49.829Z,29.58
2019-04-03T10:17:22.198Z,30.09
2019-04-03T10:19:54.450Z,30.14
2019-04-03T10:22:26.736Z,31.07
2019-04-03T10:25:00.554Z,32.48
2019-04-03T10:27:32.546Z,33.88
2019-04-03T10:30:06.420Z,35.00
2019-04-03T10:32:38.506Z,35.63
2019-04-03T10:35:11.154Z,35.52
2019-04-03T10:37:46.377Z,35.73
2019-04-03T10:40:18.834Z,35.39
2019-04-03T10:42:51.533Z,34.46
2019-04-03T10:45:23.717Z,33.33
2019-04-03T10:47:56.707Z,33.76
2019-04-03T10:50:29.059Z,34.13
2019-04-03T10:53:01.165Z,35.03
2019-04-03T10:55:33.143Z,35.85
2019-04-03T10:58:07.701Z,33.85
2019-04-03T11:00:39.216Z,34.31
2019-04-03T11:03:11.561Z,33.56
2019-04-03T11:05:43.706Z,32.67
2019-04-03T11:08:15.877Z,31.90
2019-04-03T11:10:47.853Z,32.75
2019-04-03T11:13:20.245Z,32.37
2019-04-03T11:15:52.496Z,32.56
2019-04-03T11:18:24.635Z,32.67
2019-04-03T11:20:58.220Z,32.74
2019-04-03T11:23:40.526Z,32.90
2019-04-03T11:26:05.384Z,32.48
2019-04-03T11:28:38.400Z,31.99
2019-04-03T11:31:11.176Z,29.74
2019-04-03T11:33:45.933Z,30.11
2019-04-03T11:36:17.032Z,29.30
2019-04-03T11:38:50.181Z,28.42
2019-04-03T11:41:23.899Z,27.56
2019-04-03T11:43:56.368Z,26.73
2019-04-03T11:46:28.459Z,26.30
2019-04-03T11:49:01.117Z,26.04
2019-04-03T11:51:34.315Z,26.02
2019-04-03T11:54:07.896Z,25.28
2019-04-03T11:56:40.654Z,24.62
2019-04-03T11:59:12.803Z,24.76
2019-04-03T12:01:44.849Z,24.43
2019-04-03T12:04:16.982Z,24.89
2019-04-03T12:06:49.804Z,25.24
2019-04-03T12:09:23.034Z,24.19
2019-04-03T12:11:55.547Z,24.11
2019-04-03T12:14:28.112Z,24.09
2019-04-03T12:17:00.290Z,24.08
2019-04-03T12:19:32.663Z,24.14
2019-04-03T12:22:04.799Z,24.43
2019-04-03T12:24:36.790Z,24.47
2019-04-03T12:27:09.074Z,24.51
2019-04-03T12:29:41.181Z,24.50
2019-04-03T12:32:13.260Z,23.67
2019-04-03T12:34:45.243Z,23.84
2019-04-03T12:37:18.697Z,23.91
2019-04-03T12:39:51.015Z,23.88
2019-04-03T12:42:23.398Z,24.27
2019-04-03T12:44:55.907Z,24.20
2019-04-03T12:47:28.488Z,24.01
2019-04-03T12:50:00.989Z,24.19
2019-04-03T12:52:33.301Z,24.01
2019-04-03T12:55:06.140Z,24.14
2019-04-03T12:57:40.217Z,24.29
2019-04-03T13:00:13.914Z,24.03
2019-04-03T13:02:53.514Z,23.49
2019-04-03T13:05:25.705Z,23.63
2019-04-03T13:07:59.553Z,23.43
2019-04-03T13:10:41.341Z,23.16
2019-04-03T13:13:05.143Z,22.49
2019-04-03T13:15:38.092Z,22.17
2019-04-03T13:18:11.082Z,22.19
2019-04-03T13:20:43.068Z,21.82
2019-04-03T13:23:15.585Z,21.90
2019-04-03T13:25:47.852Z,21.91
2019-04-03T13:28:20.595Z,21.84
2019-04-03T13:30:53.119Z,21.76
2019-04-03T13:33:25.491Z,21.50
2019-04-03T13:35:57.426Z,21.45
2019-04-03T13:38:30.026Z,21.25
2019-04-03T13:41:04.677Z,21.16
2019-04-03T13:43:35.938Z,20.96
2019-04-03T13:46:08.075Z,20.78
2019-04-03T13:48:40.366Z,20.84
2019-04-03T13:51:12.962Z,20.88
2019-04-03T13:53:45.388Z,20.89
2019-04-03T13:56:17.521Z,21.17
2019-04-03T13:58:52.609Z,21.46
2019-04-03T14:01:27.642Z,21.92
2019-04-03T14:03:58.813Z,21.85
2019-04-03T14:06:31.050Z,21.73
2019-04-03T14:09:03.599Z,21.62
2019-04-03T14:11:36.023Z,21.68
2019-04-03T14:14:08.243Z,21.73
2019-04-03T14:16:40.695Z,21.63
2019-04-03T14:19:13.345Z,21.53
2019-04-03T14:21:47.406Z,21.53
2019-04-03T14:24:20.455Z,21.51
2019-04-03T14:26:52.751Z,21.69
2019-04-03T14:29:25.009Z,21.78
2019-04-03T14:31:57.193Z,21.73
2019-04-03T14:34:30.578Z,21.53
2019-04-03T14:37:03.059Z,21.40
2019-04-03T14:39:35.270Z,21.02
2019-04-03T14:42:08.245Z,21.06
2019-04-03T14:44:41.956Z,21.07
2019-04-03T14:47:14.464Z,21.05
2019-04-03T14:49:46.428Z,21.13
2019-04-03T14:52:18.608Z,21.17
2019-04-03T14:54:55.062Z,21.30
2019-04-03T14:57:26.902Z,21.27
2019-04-03T15:00:02.017Z,21.12
2019-04-03T15:02:32.771Z,20.92
2019-04-03T15:05:07.420Z,20.97
2019-04-03T15:07:39.234Z,20.71
2019-04-03T15:10:11.867Z,20.77
2019-04-03T15:12:45.904Z,20.65
2019-04-03T15:15:18.201Z,20.60
2019-04-03T15:17:51.079Z,20.50
2019-04-03T15:20:24.085Z,20.32
2019-04-03T15:22:56.471Z,20.13
2019-04-03T15:25:29.437Z,20.07
2019-04-03T15:28:01.830Z,19.99
2019-04-03T15:30:34.199Z,19.87
2019-04-03T15:33:06.923Z,19.81
2019-04-03T15:35:40.206Z,19.92
2019-04-03T15:38:13.479Z,19.86
2019-04-03T15:40:46.193Z,19.82
2019-04-03T15:43:18.349Z,19.72
2019-04-03T15:45:50.413Z,19.70
2019-04-03T15:48:22.864Z,19.63
2019-04-03T15:50:57.615Z,19.66
2019-04-03T15:53:30.283Z,19.53
2019-04-03T15:56:02.621Z,19.55
2019-04-03T15:58:34.646Z,19.55
2019-04-03T16:01:08.531Z,19.47
2019-04-03T16:03:41.344Z,19.41
2019-04-03T16:06:13.433Z,19.39
2019-04-03T16:08:47.442Z,19.38
2019-04-03T16:11:19.260Z,19.20
2019-04-03T16:13:51.342Z,19.20
2019-04-03T16:16:23.919Z,19.15
2019-04-03T16:18:57.277Z,19.04
2019-04-03T16:21:30.818Z,18.93
2019-04-03T16:24:02.963Z,18.86
2019-04-03T16:26:35.055Z,18.79
2019-04-03T16:29:08.721Z,18.81
2019-04-03T16:31:41.650Z,18.78
2019-04-03T16:34:13.779Z,18.71
2019-04-03T16:36:47.899Z,18.65
2019-04-03T16:39:20.807Z,18.62
2019-04-03T16:41:52.888Z,18.55
2019-04-03T16:44:26.283Z,18.46
2019-04-03T16:46:58.799Z,18.38
2019-04-03T16:49:31.440Z,18.31
2019-04-03T16:52:05.587Z,18.29
2019-04-03T16:54:37.635Z,18.24
2019-04-03T16:57:10.172Z,18.20
2019-04-03T16:59:42.602Z,18.10
2019-04-03T17:02:14.814Z,18.06
2019-04-03T17:04:47.002Z,18.00
2019-04-03T17:07:20.588Z,17.88
2019-04-03T17:09:52.820Z,17.77
2019-04-03T17:12:24.955Z,17.59
2019-04-03T17:14:57.088Z,17.49
2019-04-03T17:17:29.276Z,17.40
2019-04-03T17:20:01.227Z,17.34
2019-04-03T17:22:33.325Z,17.19
2019-04-03T17:25:06.024Z,17.10
2019-04-03T17:27:38.044Z,17.13
2019-04-03T17:30:11.334Z,17.10
2019-04-03T17:32:43.629Z,16.98
2019-04-03T17:35:16.308Z,16.94
2019-04-03T17:37:48.427Z,16.85
2019-04-03T17:40:20.748Z,16.79
2019-04-03T17:42:52.765Z,16.83
2019-04-03T17:45:24.801Z,16.79
2019-04-03T17:47:56.822Z,16.75
2019-04-03T17:50:29.688Z,16.73
2019-04-03T17:53:02.471Z,16.65
2019-04-03T17:55:34.736Z,16.51
2019-04-03T17:58:07.037Z,16.48
2019-04-03T18:00:39.119Z,16.36
2019-04-03T18:03:11.202Z,16.28
2019-04-03T18:05:43.149Z,16.20
2019-04-03T18:08:15.370Z,16.15
2019-04-03T18:10:47.534Z,16.08
2019-04-03T18:13:19.596Z,16.04
2019-04-03T18:15:51.683Z,16.03
2019-04-03T18:18:24.785Z,16.08
2019-04-03T18:20:57.067Z,16.08
2019-04-03T18:23:29.107Z,16.20
2019-04-03T18:26:01.975Z,16.21
2019-04-03T18:28:35.758Z,16.26
2019-04-03T18:31:07.848Z,16.28
2019-04-03T18:33:40.300Z,16.21
2019-04-03T18:36:12.443Z,16.31
2019-04-03T18:38:44.450Z,16.28
2019-04-03T18:41:16.859Z,16.27
2019-04-03T18:43:49.580Z,16.29
2019-04-03T18:46:31.607Z,16.18
2019-04-03T18:49:00.761Z,16.15
2019-04-03T18:51:29.290Z,16.05
2019-04-03T18:54:01.366Z,16.00
2019-04-03T18:56:35.475Z,16.01
2019-04-03T18:59:07.296Z,15.81
2019-04-03T19:01:39.344Z,15.73
2019-04-03T19:04:11.583Z,15.63
2019-04-03T19:06:44.727Z,15.71
2019-04-03T19:09:21.049Z,15.67
2019-04-03T19:11:51.675Z,15.57
2019-04-03T19:14:32.393Z,15.62
2019-04-03T19:16:57.553Z,15.51
2019-04-03T19:19:30.008Z,15.44
2019-04-03T19:22:02.217Z,15.41
2019-04-03T19:24:34.246Z,15.36
2019-04-03T19:27:06.371Z,15.22
2019-04-03T19:29:38.385Z,15.16
2019-04-03T19:32:12.242Z,15.14
2019-04-03T19:34:44.116Z,15.15
2019-04-03T19:37:16.042Z,15.11
2019-04-03T19:39:48.039Z,15.03
2019-04-03T19:42:20.403Z,15.04
2019-04-03T19:44:52.415Z,15.01
2019-04-03T19:47:24.662Z,15.03
2019-04-03T19:49:59.740Z,14.97
2019-04-03T19:52:30.947Z,14.92
2019-04-03T19:55:02.997Z,14.90
2019-04-03T19:57:34.958Z,14.77
2019-04-03T20:00:09.288Z,14.83
2019-04-03T20:02:43.050Z,14.78
2019-04-03T20:05:15.142Z,14.77
2019-04-03T20:07:47.106Z,14.84
2019-04-03T20:10:19.190Z,14.80
2019-04-03T20:12:51.263Z,14.81
2019-04-03T20:15:23.435Z,14.67
2019-04-03T20:17:55.491Z,14.62
2019-04-03T20:20:29.351Z,14.59
2019-04-03T20:23:01.182Z,14.55
2019-04-03T20:25:34.142Z,14.59
2019-04-03T20:28:06.208Z,14.53
2019-04-03T20:30:38.346Z,14.67
2019-04-03T20:33:11.812Z,14.57
2019-04-03T20:35:44.317Z,14.46
2019-04-03T20:38:16.312Z,14.45
2019-04-03T20:40:48.324Z,14.29
2019-04-03T20:43:20.671Z,14.29
2019-04-03T20:45:52.636Z,14.15
2019-04-03T20:48:27.991Z,14.12
2019-04-03T20:50:58.388Z,14.00
2019-04-03T20:53:30.798Z,13.91
2019-04-03T20:56:02.809Z,13.78
2019-04-03T20:58:34.808Z,13.63
2019-04-03T21:01:07.369Z,13.49
2019-04-03T21:03:39.510Z,13.38
2019-04-03T21:06:11.525Z,13.34
2019-04-03T21:08:43.487Z,13.27
2019-04-03T21:11:17.532Z,13.21
2019-04-03T21:13:49.916Z,13.22
2019-04-03T21:16:32.783Z,13.15
2019-04-03T21:18:55.584Z,13.10
2019-04-03T21:21:27.650Z,13.00
2019-04-03T21:24:00.246Z,12.94
2019-04-03T21:26:32.298Z,12.94
2019-04-03T21:29:04.377Z,12.91
2019-04-03T21:31:36.456Z,12.84
2019-04-03T21:34:08.465Z,12.79
2019-04-03T21:36:40.451Z,12.72
2019-04-03T21:39:12.886Z,12.63
2019-04-03T21:41:45.464Z,12.56
2019-04-03T21:44:17.468Z,12.56
2019-04-03T21:46:49.544Z,12.54
2019-04-03T21:49:21.563Z,12.47
2019-04-03T21:51:53.545Z,12.41
2019-04-03T21:54:26.864Z,12.36
2019-04-03T21:57:00.001Z,12.28
2019-04-03T21:59:32.117Z,12.19
2019-04-03T22:02:04.355Z,12.15
2019-04-03T22:04:36.649Z,12.14
2019-04-03T22:07:08.619Z,12.12
2019-04-03T22:09:40.956Z,12.06
2019-04-03T22:12:12.918Z,12.00
2019-04-03T22:14:44.935Z,11.97
2019-04-03T22:17:16.996Z,11.95
2019-04-03T22:19:49.294Z,11.91
2019-04-03T22:22:21.394Z,11.90
2019-04-03T22:24:53.477Z,11.85
2019-04-03T22:27:25.432Z,11.81
2019-04-03T22:29:57.503Z,11.77
2019-04-03T22:32:29.475Z,11.74
2019-04-03T22:35:01.609Z,11.70
2019-04-03T22:37:35.193Z,11.65
2019-04-03T22:40:09.924Z,11.65
2019-04-03T22:42:41.520Z,11.64
2019-04-03T22:45:13.608Z,11.61
2019-04-03T22:47:47.660Z,11.64
2019-04-03T22:50:20.477Z,11.61
2019-04-03T22:52:52.547Z,11.65
2019-04-03T22:55:24.499Z,11.65
2019-04-03T22:57:56.478Z,11.68
2019-04-03T23:00:28.943Z,11.68
2019-04-03T23:03:02.942Z,11.69
2019-04-03T23:05:35.292Z,11.75
2019-04-03T23:08:07.267Z,11.78
2019-04-03T23:10:39.294Z,11.78
2019-04-03T23:13:11.308Z,11.83
2019-04-03T23:15:43.398Z,11.86
2019-04-03T23:18:15.987Z,11.85
2019-04-03T23:20:48.557Z,11.82
2019-04-03T23:23:20.893Z,11.82
2019-04-03T23:25:52.889Z,11.77
2019-04-03T23:28:25.941Z,11.69
2019-04-03T23:30:57.955Z,11.63
2019-04-03T23:33:30.034Z,11.62
2019-04-03T23:36:04.169Z,11.59
2019-04-03T23:38:36.165Z,11.54
2019-04-03T23:41:08.245Z,11.50
2019-04-03T23:43:40.513Z,11.47
2019-04-03T23:46:12.763Z,11.44
2019-04-03T23:48:48.669Z,11.39
2019-04-03T23:51:23.384Z,11.37
2019-04-03T23:53:54.017Z,11.36
2019-04-03T23:56:25.954Z,11.34
2019-04-03T23:58:57.915Z,11.29
